Time;durP1;ratioP1;P1;durP2;ratioP2;P2;SDS_P1;SDS_P2;PMS_P1;PMS_P2;Temp;Humidity;BMP_temperature;BMP_pressure;BME280_temperature;BME280_humidity;BME280_pressure;Samples;Min_cycle;Max_cycle;Signal;HPM_P1;HPM_P2
2021/06/06 00:02:33;;;;;;;7.47;6.80;;;18.90;80.60;;;;;;10537895;28;20223;-24
2021/06/06 00:07:54;;;;;;;8.13;7.43;;;18.90;80.70;;;;;;10538158;28;20713;-24
2021/06/06 00:13:19;;;;;;;7.30;6.60;;;18.90;80.70;;;;;;10537007;28;20266;-25
2021/06/06 00:18:42;;;;;;;7.33;6.70;;;18.90;80.50;;;;;;10535960;28;20243;-24
2021/06/06 00:24:05;;;;;;;7.50;6.80;;;18.90;80.70;;;;;;10535559;28;20685;-24
2021/06/06 00:29:27;;;;;;;7.40;6.80;;;18.90;80.60;;;;;;10536215;28;20223;-22
2021/06/06 00:34:50;;;;;;;7.03;6.43;;;18.90;80.60;;;;;;10536508;28;20192;-24
2021/06/06 00:40:15;;;;;;;7.40;6.80;;;18.90;80.60;;;;;;10537322;28;20240;-26
2021/06/06 00:45:38;;;;;;;7.37;6.77;;;18.90;80.70;;;;;;10536638;28;20212;-23
2021/06/06 00:51:05;;;;;;;6.57;6.00;;;18.90;80.60;;;;;;10536313;28;20226;-23
2021/06/06 00:56:28;;;;;;;7.40;6.77;;;18.90;80.60;;;;;;10533303;28;20212;-24
2021/06/06 01:01:50;;;;;;;7.07;6.37;;;18.80;80.60;;;;;;10535890;28;20196;-24
2021/06/06 01:07:13;;;;;;;6.97;6.47;;;18.80;80.60;;;;;;10536173;28;20211;-23
2021/06/06 01:12:38;;;;;;;7.60;6.80;;;18.90;80.60;;;;;;10535225;28;20207;-23
2021/06/06 01:18:08;;;;;;;7.53;6.93;;;18.90;80.60;;;;;;10535273;28;20216;-21
2021/06/06 01:23:44;;;;;;;7.37;6.77;;;18.90;80.70;;;;;;10534929;28;20587;-24
2021/06/06 01:29:13;;;;;;;7.63;7.03;;;18.90;80.60;;;;;;10534446;28;20211;-24
2021/06/06 01:34:35;;;;;;;7.47;6.73;;;18.90;80.70;;;;;;10548319;28;20191;-25
2021/06/06 01:40:01;;;;;;;7.40;6.80;;;18.90;80.70;;;;;;10548832;28;20587;-24
2021/06/06 01:45:30;;;;;;;7.60;7.00;;;18.90;80.70;;;;;;10506662;28;20216;-24
2021/06/06 01:50:59;;;;;;;8.40;7.70;;;18.80;80.70;;;;;;10506488;28;20192;-23
2021/06/06 01:56:24;;;;;;;8.57;7.87;;;18.80;80.60;;;;;;10505825;28;20220;-25
2021/06/06 02:01:47;;;;;;;8.53;7.83;;;18.80;81.20;;;;;;10513525;28;20583;-24
2021/06/06 02:07:14;;;;;;;8.50;7.77;;;18.80;80.60;;;;;;10547935;28;20212;-24
2021/06/06 02:12:39;;;;;;;9.50;8.70;;;18.80;80.70;;;;;;10547283;28;20609;-22
2021/06/06 02:18:05;;;;;;;10.33;8.57;;;18.80;80.70;;;;;;10547751;28;20223;-23
2021/06/06 02:23:32;;;;;;;9.43;8.53;;;18.80;80.70;;;;;;10546995;28;20237;-24
2021/06/06 02:29:01;;;;;;;9.33;8.53;;;18.90;80.70;;;;;;10549959;28;20686;-24
2021/06/06 02:34:29;;;;;;;8.70;8.00;;;18.90;80.70;;;;;;10549728;28;20592;-23
2021/06/06 02:39:56;;;;;;;8.67;7.97;;;18.80;80.60;;;;;;10550021;28;20218;-24
2021/06/06 02:45:23;;;;;;;9.17;8.43;;;18.80;80.60;;;;;;10540888;28;20207;-24
2021/06/06 02:50:47;;;;;;;8.93;8.23;;;18.90;80.70;;;;;;10540628;28;20203;-23
2021/06/06 02:56:13;;;;;;;9.73;8.43;;;18.90;80.60;;;;;;10535361;28;20216;-23
2021/06/06 03:01:38;;;;;;;9.63;8.73;;;18.80;80.60;;;;;;10532020;28;20199;-24
2021/06/06 03:07:05;;;;;;;9.30;8.40;;;18.90;80.70;;;;;;10541289;28;20215;-21
2021/06/06 03:12:29;;;;;;;10.10;9.20;;;18.80;80.60;;;;;;10539935;28;20697;-23
2021/06/06 03:17:53;;;;;;;8.67;7.97;;;18.80;80.70;;;;;;10539843;28;20596;-23
2021/06/06 03:23:22;;;;;;;10.60;9.60;;;18.80;81.20;;;;;;10540397;28;20796;-23
2021/06/06 03:28:44;;;;;;;10.03;9.13;;;18.80;80.60;;;;;;10540696;28;20254;-23
2021/06/06 03:34:06;;;;;;;10.27;9.37;;;18.80;80.50;;;;;;10539787;28;20739;-24
2021/06/06 03:39:29;;;;;;;9.97;9.00;;;18.80;80.60;;;;;;10540209;28;20234;-23
2021/06/06 03:44:51;;;;;;;9.60;8.70;;;18.90;80.70;;;;;;10497676;28;20216;-23
2021/06/06 03:50:16;;;;;;;9.37;8.47;;;18.90;80.60;;;;;;10518999;22;20235;-21
2021/06/06 03:55:39;;;;;;;10.77;9.70;;;18.80;80.50;;;;;;10495881;28;20195;-21
2021/06/06 04:01:00;;;;;;;10.97;9.97;;;18.90;80.70;;;;;;10497701;28;20227;-21
2021/06/06 04:06:23;;;;;;;10.70;9.70;;;18.90;80.50;;;;;;10488695;28;20216;-19
2021/06/06 04:11:46;;;;;;;10.53;9.63;;;18.90;80.70;;;;;;10455164;28;20249;-21
2021/06/06 04:17:07;;;;;;;10.03;9.13;;;18.90;80.70;;;;;;10455324;28;20240;-25
2021/06/06 04:22:29;;;;;;;10.80;9.80;;;18.80;80.50;;;;;;10483790;28;20208;-22
2021/06/06 04:27:52;;;;;;;9.93;9.03;;;18.90;80.50;;;;;;10495121;28;20642;-23
2021/06/06 04:33:14;;;;;;;10.80;9.80;;;18.90;80.60;;;;;;10494639;28;20215;-22
2021/06/06 04:38:36;;;;;;;10.17;9.27;;;18.90;80.70;;;;;;10494709;28;20227;-22
2021/06/06 04:43:58;;;;;;;10.60;9.60;;;18.90;80.60;;;;;;10476879;28;20220;-24
2021/06/06 04:49:20;;;;;;;9.93;9.13;;;18.80;80.50;;;;;;10494415;28;20242;-22
2021/06/06 04:54:42;;;;;;;10.37;9.37;;;18.80;80.50;;;;;;10494243;28;20214;-25
2021/06/06 05:00:08;;;;;;;11.00;9.90;;;18.80;80.60;;;;;;10486408;28;20573;-22
2021/06/06 05:05:29;;;;;;;11.30;10.20;;;18.80;80.60;;;;;;10493517;28;20683;-21
2021/06/06 05:10:53;;;;;;;11.47;10.37;;;18.80;80.60;;;;;;10493900;28;20235;-24
2021/06/06 05:16:16;;;;;;;11.50;10.27;;;18.80;80.60;;;;;;10492615;28;20200;-21
2021/06/06 05:21:39;;;;;;;11.73;10.50;;;18.80;80.60;;;;;;10494956;28;20204;-22
2021/06/06 05:27:00;;;;;;;11.13;10.10;;;18.80;80.70;;;;;;10475313;28;20220;-22
2021/06/06 05:32:23;;;;;;;12.57;10.50;;;18.80;80.70;;;;;;10493219;28;20267;-21
2021/06/06 05:37:45;;;;;;;10.43;9.50;;;18.80;80.70;;;;;;10493516;28;20220;-23
2021/06/06 05:43:07;;;;;;;12.07;10.27;;;18.80;80.70;;;;;;10492712;28;20849;-22
2021/06/06 05:48:30;;;;;;;11.20;10.10;;;18.80;80.70;;;;;;10492080;28;20231;-22
2021/06/06 05:53:52;;;;;;;9.90;8.87;;;18.80;80.70;;;;;;10493063;28;20625;-25
2021/06/06 05:59:14;;;;;;;10.80;9.77;;;18.80;80.70;;;;;;10476683;28;20592;-22
2021/06/06 06:04:37;;;;;;;11.13;9.97;;;18.80;80.60;;;;;;10451456;28;20232;-22
2021/06/06 06:09:59;;;;;;;9.83;8.83;;;18.80;80.80;;;;;;10466663;28;20274;-22
2021/06/06 06:15:20;;;;;;;9.80;8.80;;;18.80;80.70;;;;;;10469342;28;20288;-22
2021/06/06 06:20:45;;;;;;;12.70;11.40;;;18.80;80.80;;;;;;10478301;28;20208;-22
2021/06/06 06:26:07;;;;;;;12.90;11.13;;;18.80;80.60;;;;;;10478667;28;20212;-22
2021/06/06 06:31:29;;;;;;;14.07;11.43;;;18.80;81.10;;;;;;10478904;28;20663;-22
2021/06/06 06:36:52;;;;;;;11.37;10.20;;;18.90;81.30;;;;;;10482729;28;20212;-24
2021/06/06 06:42:14;;;;;;;23.40;17.73;;;18.80;81.20;;;;;;10478535;28;20197;-22
2021/06/06 06:47:35;;;;;;;27.63;20.47;;;18.80;84.40;;;;;;10498327;28;20220;-22
2021/06/06 06:53:00;;;;;;;29.93;21.77;;;18.70;85.70;;;;;;10480641;28;20580;-22
2021/06/06 06:58:22;;;;;;;31.27;22.47;;;18.70;86.40;;;;;;10498716;28;20267;-21
2021/06/06 07:03:43;;;;;;;35.60;22.73;;;18.60;87.00;;;;;;10499112;28;20641;-23
2021/06/06 07:09:06;;;;;;;39.80;24.30;;;18.70;86.60;;;;;;10498755;28;20223;-23
2021/06/06 07:14:28;;;;;;;40.13;25.13;;;18.70;86.50;;;;;;10495266;28;20625;-23
2021/06/06 07:19:50;;;;;;;40.63;25.43;;;18.60;86.80;;;;;;10457641;28;20212;-22
2021/06/06 07:25:15;;;;;;;38.23;24.40;;;18.70;86.80;;;;;;10456760;28;20220;-22
2021/06/06 07:30:45;;;;;;;41.60;25.63;;;18.70;86.80;;;;;;10456745;28;20209;-22
2021/06/06 07:36:09;;;;;;;42.50;25.30;;;18.60;87.60;;;;;;10454341;28;20750;-22
2021/06/06 07:41:32;;;;;;;39.60;24.53;;;18.50;87.90;;;;;;10468535;28;20254;-25
2021/06/06 07:46:53;;;;;;;38.00;23.50;;;18.50;88.70;;;;;;10495560;28;20568;-23
2021/06/06 07:52:15;;;;;;;41.00;24.13;;;18.50;88.90;;;;;;10456777;28;20264;-22
2021/06/06 07:57:38;;;;;;;38.07;24.37;;;18.40;89.40;;;;;;10465818;28;20212;-22
2021/06/06 08:03:00;;;;;;;36.20;22.77;;;18.50;90.00;;;;;;10495968;28;20756;-23
2021/06/06 08:08:22;;;;;;;36.70;22.23;;;18.50;90.00;;;;;;10496557;28;20221;-22
2021/06/06 08:13:45;;;;;;;35.30;22.40;;;18.50;89.60;;;;;;10496276;28;20563;-22
2021/06/06 08:19:07;;;;;;;33.93;21.73;;;18.60;90.10;;;;;;10489509;28;20325;-22
2021/06/06 08:24:28;;;;;;;30.07;19.30;;;18.50;89.80;;;;;;10495534;28;20224;-23
2021/06/06 08:29:51;;;;;;;30.30;19.43;;;18.60;89.10;;;;;;10494378;28;20208;-23
2021/06/06 08:35:14;;;;;;;28.13;18.70;;;18.60;88.70;;;;;;10494033;28;20671;-22
2021/06/06 08:40:44;;;;;;;26.47;17.97;;;18.70;88.30;;;;;;10494872;28;20273;-22
2021/06/06 08:46:09;;;;;;;31.03;20.60;;;18.60;88.40;;;;;;10492948;28;20216;-22
2021/06/06 08:51:41;;;;;;;31.07;20.97;;;18.70;87.60;;;;;;10493241;28;20417;-22
2021/06/06 08:57:05;;;;;;;33.90;21.57;;;18.60;87.80;;;;;;10493418;28;20687;-23
2021/06/06 09:02:34;;;;;;;29.13;21.00;;;18.60;87.50;;;;;;10468461;28;20665;-22
2021/06/06 09:07:59;;;;;;;28.80;20.27;;;18.60;87.50;;;;;;10491211;28;20228;-25
2021/06/06 09:13:23;;;;;;;28.60;20.50;;;18.60;87.20;;;;;;10494390;28;20196;-22
2021/06/06 09:18:48;;;;;;;25.93;19.43;;;18.60;87.60;;;;;;10493397;28;20299;-25
2021/06/06 09:24:12;;;;;;;26.77;19.07;;;18.60;87.60;;;;;;10454849;28;20212;-24
2021/06/06 09:29:34;;;;;;;27.00;18.40;;;18.60;87.60;;;;;;10452199;28;20217;-22
2021/06/06 09:34:59;;;;;;;25.33;17.73;;;18.70;88.10;;;;;;10452381;28;20684;-22
2021/06/06 09:40:32;;;;;;;25.93;18.60;;;18.70;88.20;;;;;;10457611;28;20212;-22
2021/06/06 09:46:05;;;;;;;26.70;18.83;;;18.70;88.10;;;;;;10493031;28;20219;-22
2021/06/06 09:51:31;;;;;;;31.17;22.57;;;18.70;88.30;;;;;;10584620;22;20234;-26
2021/06/06 09:56:56;;;;;;;29.77;22.50;;;18.70;88.30;;;;;;10543511;28;20192;-23
2021/06/06 10:02:26;;;;;;;41.27;28.17;;;18.70;88.50;;;;;;10538632;28;20719;-25
2021/06/06 10:07:57;;;;;;;34.60;25.83;;;18.80;88.50;;;;;;10509704;28;20707;-23
2021/06/06 10:13:23;;;;;;;36.60;26.07;;;18.80;88.00;;;;;;10542518;28;20196;-26
2021/06/06 10:18:51;;;;;;;36.27;26.33;;;18.70;88.30;;;;;;10542002;28;20291;-22
2021/06/06 10:24:17;;;;;;;39.43;28.03;;;18.80;87.60;;;;;;10542897;28;20268;-24
2021/06/06 10:29:43;;;;;;;38.83;28.57;;;18.80;88.20;;;;;;10538705;28;20257;-22
2021/06/06 10:35:12;;;;;;;43.40;28.73;;;18.80;88.20;;;;;;10525419;28;20245;-24
2021/06/06 10:40:40;;;;;;;45.37;30.53;;;18.80;87.30;;;;;;10542403;28;20222;-24
2021/06/06 10:46:12;;;;;;;46.90;31.90;;;18.80;87.50;;;;;;10541368;28;20212;-23
2021/06/06 10:51:36;;;;;;;43.10;28.90;;;18.80;87.90;;;;;;10493743;28;20221;-25
2021/06/06 10:57:02;;;;;;;50.50;34.23;;;18.80;87.90;;;;;;10497320;28;20290;-25
2021/06/06 11:02:30;;;;;;;52.10;33.17;;;18.70;88.10;;;;;;10495372;28;20204;-24
2021/06/06 11:07:52;;;;;;;58.63;36.93;;;18.70;87.90;;;;;;10493321;28;20217;-25
2021/06/06 11:13:32;;;;;;;50.17;34.03;;;18.70;88.60;;;;;;10475417;28;20415;-24
2021/06/06 11:18:57;;;;;;;45.43;31.57;;;18.70;88.50;;;;;;10478650;28;20220;-24
2021/06/06 11:24:34;;;;;;;48.07;33.30;;;18.70;87.10;;;;;;10477090;28;20208;-26
2021/06/06 11:30:03;;;;;;;46.33;32.80;;;18.70;88.10;;;;;;10478144;28;20221;-25
2021/06/06 11:35:31;;;;;;;35.10;25.33;;;18.80;87.40;;;;;;10476306;28;20193;-24
2021/06/06 11:41:06;;;;;;;42.10;29.17;;;18.80;86.10;;;;;;10484386;28;20208;-24
2021/06/06 11:46:33;;;;;;;37.57;26.73;;;18.80;86.60;;;;;;10477295;28;20220;-24
2021/06/06 11:51:57;;;;;;;43.40;29.73;;;18.80;87.10;;;;;;10512175;28;20207;-25
2021/06/06 11:57:23;;;;;;;47.53;32.33;;;18.80;87.10;;;;;;10531884;28;20212;-27
2021/06/06 12:02:47;;;;;;;44.93;31.43;;;18.80;86.80;;;;;;10538905;28;20192;-24
2021/06/06 12:08:09;;;;;;;42.13;29.67;;;18.80;87.20;;;;;;10516063;28;20212;-25
2021/06/06 12:13:34;;;;;;;38.40;27.13;;;18.90;87.30;;;;;;10501569;28;20237;-24
2021/06/06 12:19:06;;;;;;;32.63;23.90;;;18.80;86.20;;;;;;10529959;28;20564;-24
2021/06/06 12:24:28;;;;;;;34.20;25.37;;;18.80;84.80;;;;;;10494067;28;20216;-24
2021/06/06 12:29:52;;;;;;;32.63;25.63;;;18.80;85.00;;;;;;10517860;28;20227;-24
2021/06/06 12:35:18;;;;;;;32.50;25.10;;;18.90;85.60;;;;;;10495709;28;20189;-24
2021/06/06 12:40:40;;;;;;;38.60;27.80;;;18.90;84.80;;;;;;10502248;28;20292;-24
2021/06/06 12:46:04;;;;;;;40.37;29.83;;;18.90;85.60;;;;;;10535729;28;20220;-24
2021/06/06 12:51:30;;;;;;;38.20;27.97;;;18.80;86.70;;;;;;10489393;28;20274;-24
2021/06/06 12:57:02;;;;;;;37.70;26.57;;;18.80;86.80;;;;;;10465600;28;20568;-23
2021/06/06 13:02:25;;;;;;;38.03;26.10;;;18.90;86.70;;;;;;10472993;28;20208;-25
2021/06/06 13:07:56;;;;;;;34.47;25.63;;;18.80;86.80;;;;;;10451874;28;20220;-24
2021/06/06 13:13:19;;;;;;;33.60;26.70;;;18.90;87.10;;;;;;10457096;28;20204;-26
2021/06/06 13:18:41;;;;;;;30.50;24.53;;;18.90;87.20;;;;;;10496223;28;20586;-23
2021/06/06 13:24:15;;;;;;;33.00;24.33;;;18.90;85.50;;;;;;10480791;28;20673;-27
2021/06/06 13:29:39;;;;;;;26.50;20.63;;;18.90;86.00;;;;;;10473744;28;20227;-24
2021/06/06 13:35:05;;;;;;;24.63;20.37;;;19.00;84.80;;;;;;10504040;28;20203;-25
2021/06/06 13:40:30;;;;;;;25.57;18.97;;;18.90;84.60;;;;;;10475924;28;20216;-24
2021/06/06 13:45:51;;;;;;;24.53;18.47;;;18.90;84.60;;;;;;10491592;28;20212;-24
2021/06/06 13:51:13;;;;;;;26.03;19.30;;;18.90;84.40;;;;;;10491737;28;20239;-24
2021/06/06 13:56:37;;;;;;;23.53;18.83;;;18.90;84.00;;;;;;10492039;28;20200;-24
2021/06/06 14:01:58;;;;;;;21.50;18.40;;;18.90;83.60;;;;;;10492155;28;20698;-25
2021/06/06 14:07:20;;;;;;;22.07;17.40;;;18.90;83.30;;;;;;10492620;28;20224;-24
2021/06/06 14:12:43;;;;;;;22.07;18.40;;;18.90;83.60;;;;;;10492528;28;20254;-26
2021/06/06 14:18:06;;;;;;;21.57;18.13;;;18.90;83.50;;;;;;10491417;28;20209;-24
2021/06/06 14:23:29;;;;;;;20.43;17.17;;;18.90;83.10;;;;;;10501783;28;20699;-24
2021/06/06 14:28:52;;;;;;;22.77;17.73;;;18.80;83.20;;;;;;10501087;28;20587;-25
2021/06/06 14:34:14;;;;;;;23.30;18.53;;;18.90;83.40;;;;;;10492252;28;20218;-24
2021/06/06 14:39:36;;;;;;;21.70;18.13;;;18.80;82.90;;;;;;10495460;28;20221;-24
2021/06/06 14:44:59;;;;;;;22.40;18.10;;;18.80;82.90;;;;;;10458440;28;20221;-24
2021/06/06 14:50:22;;;;;;;20.13;17.47;;;18.80;83.00;;;;;;10485051;28;20224;-25
2021/06/06 14:55:44;;;;;;;19.67;17.40;;;18.80;82.90;;;;;;10498168;28;20196;-25
2021/06/06 15:01:10;;;;;;;18.87;16.70;;;18.80;83.10;;;;;;10495012;28;20273;-24
2021/06/06 15:06:32;;;;;;;17.93;16.13;;;18.80;82.90;;;;;;10496888;28;20207;-24
2021/06/06 15:11:54;;;;;;;19.30;16.60;;;18.80;83.10;;;;;;10495800;28;20230;-24
2021/06/06 15:17:17;;;;;;;18.90;16.90;;;18.80;82.90;;;;;;10496060;28;20216;-24
2021/06/06 15:22:40;;;;;;;18.63;16.07;;;18.80;83.20;;;;;;10497501;28;20679;-24
2021/06/06 15:28:01;;;;;;;20.27;16.73;;;18.80;83.30;;;;;;10498044;28;20225;-24
2021/06/06 15:33:26;;;;;;;19.87;16.20;;;18.80;83.50;;;;;;10493184;28;20200;-24
2021/06/06 15:38:48;;;;;;;18.07;16.17;;;18.80;83.10;;;;;;10497817;28;20224;-24
2021/06/06 15:44:10;;;;;;;22.57;19.47;;;18.90;82.90;;;;;;10494261;28;20952;-25
2021/06/06 15:49:33;;;;;;;17.23;15.40;;;19.10;81.80;;;;;;10528818;22;20280;-25
2021/06/06 15:54:55;;;;;;;18.00;15.37;;;19.00;82.90;;;;;;10528069;28;20675;-22
2021/06/06 16:00:20;;;;;;;18.83;16.43;;;18.90;83.00;;;;;;10522778;28;20256;-23
2021/06/06 16:05:43;;;;;;;17.83;15.90;;;18.90;82.60;;;;;;10527532;28;20216;-22
2021/06/06 16:11:06;;;;;;;19.27;15.57;;;19.00;82.90;;;;;;10528491;28;20224;-21
2021/06/06 16:16:28;;;;;;;19.37;14.33;;;18.90;82.70;;;;;;10519537;28;20201;-23
2021/06/06 16:21:51;;;;;;;21.40;14.90;;;19.00;82.60;;;;;;10452591;28;20216;-26
2021/06/06 16:27:13;;;;;;;18.80;15.07;;;19.00;82.70;;;;;;10453756;28;20270;-23
2021/06/06 16:32:34;;;;;;;17.27;14.80;;;19.00;82.80;;;;;;10462181;28;20707;-22
2021/06/06 16:37:57;;;;;;;15.77;13.93;;;18.90;82.60;;;;;;10466836;28;20565;-22
2021/06/06 16:43:20;;;;;;;17.63;14.10;;;19.00;82.70;;;;;;10511096;28;20196;-26
2021/06/06 16:48:42;;;;;;;17.53;14.10;;;18.90;82.70;;;;;;10492615;28;20224;-26
2021/06/06 16:54:05;;;;;;;15.80;13.57;;;19.00;82.60;;;;;;10493298;28;20188;-23
2021/06/06 16:59:27;;;;;;;16.30;12.93;;;18.90;82.80;;;;;;10492393;28;20212;-23
2021/06/06 17:04:48;;;;;;;15.47;13.17;;;18.90;82.90;;;;;;10492817;28;20576;-24
2021/06/06 17:10:12;;;;;;;16.87;13.20;;;18.90;83.00;;;;;;10490830;28;20568;-22
2021/06/06 17:15:36;;;;;;;22.27;13.33;;;18.90;83.10;;;;;;10527560;28;20241;-24
2021/06/06 17:20:59;;;;;;;17.57;12.57;;;18.90;82.90;;;;;;10451892;28;20492;-22
2021/06/06 17:26:25;;;;;;;18.20;13.77;;;18.90;82.90;;;;;;10458936;28;20234;-22
2021/06/06 17:31:47;;;;;;;17.23;15.13;;;18.90;82.70;;;;;;10475641;28;20209;-26
2021/06/06 17:37:09;;;;;;;18.10;14.40;;;18.90;83.00;;;;;;10470172;28;20193;-24
2021/06/06 17:42:32;;;;;;;17.60;14.77;;;18.90;83.00;;;;;;10471981;28;20193;-23
2021/06/06 17:47:54;;;;;;;15.57;12.90;;;18.90;83.00;;;;;;10467938;28;20224;-25
2021/06/06 17:53:19;;;;;;;15.27;13.43;;;18.90;82.50;;;;;;10479460;28;20189;-22
2021/06/06 17:58:44;;;;;;;17.53;15.43;;;19.00;82.20;;;;;;10472839;28;20250;-19
2021/06/06 18:04:06;;;;;;;21.43;16.33;;;19.00;82.70;;;;;;10492688;28;20595;-18
2021/06/06 18:09:27;;;;;;;24.17;17.23;;;19.00;82.80;;;;;;10492292;28;20273;-23
2021/06/06 18:14:50;;;;;;;27.50;16.83;;;19.00;83.00;;;;;;10495356;28;20203;-22
2021/06/06 18:20:15;;;;;;;20.77;15.43;;;19.00;83.20;;;;;;10475367;28;20283;-23
2021/06/06 18:25:41;;;;;;;21.23;14.57;;;19.00;83.30;;;;;;10477898;28;20263;-22
2021/06/06 18:31:06;;;;;;;19.33;15.10;;;19.00;83.40;;;;;;10479189;28;20213;-23
2021/06/06 18:36:31;;;;;;;20.73;14.30;;;19.00;83.40;;;;;;10492655;28;20185;-22
2021/06/06 18:41:53;;;;;;;18.87;12.63;;;18.90;83.40;;;;;;10485993;28;20216;-22
2021/06/06 18:47:16;;;;;;;22.97;13.37;;;18.90;83.30;;;;;;10484875;28;20216;-22
2021/06/06 18:52:41;;;;;;;15.90;12.63;;;19.00;83.20;;;;;;10482498;28;20726;-23
2021/06/06 18:58:04;;;;;;;14.50;11.87;;;18.90;83.10;;;;;;10479392;28;20247;-23
2021/06/06 19:03:34;;;;;;;14.23;11.03;;;18.90;83.30;;;;;;10462215;28;20204;-19
2021/06/06 19:08:56;;;;;;;12.50;11.20;;;18.90;83.20;;;;;;10459205;28;20245;-23
2021/06/06 19:14:18;;;;;;;13.53;11.00;;;18.90;83.30;;;;;;10501309;28;20191;-23
2021/06/06 19:19:41;;;;;;;12.17;10.37;;;18.90;83.10;;;;;;10516919;28;20231;-23
2021/06/06 19:25:04;;;;;;;14.83;10.53;;;18.90;83.10;;;;;;10484119;28;20212;-21
2021/06/06 19:30:28;;;;;;;11.23;10.00;;;18.90;83.10;;;;;;10478778;28;21019;-22
2021/06/06 19:35:52;;;;;;;16.30;10.73;;;18.90;83.10;;;;;;10524766;28;20192;-22
2021/06/06 19:41:15;;;;;;;12.17;9.07;;;18.90;83.20;;;;;;10521617;28;20213;-22
2021/06/06 19:46:38;;;;;;;11.70;9.90;;;18.90;83.10;;;;;;10492787;28;20213;-23
2021/06/06 19:52:02;;;;;;;10.87;9.77;;;18.90;83.70;;;;;;10494784;28;20231;-23
2021/06/06 19:57:24;;;;;;;9.43;8.57;;;18.90;83.10;;;;;;10496002;28;20199;-22
2021/06/06 20:02:45;;;;;;;11.10;9.27;;;18.90;83.10;;;;;;10496361;28;20200;-22
2021/06/06 20:08:10;;;;;;;10.10;9.10;;;18.90;83.10;;;;;;10496240;28;20219;-22
2021/06/06 20:13:33;;;;;;;10.90;8.90;;;18.90;83.10;;;;;;10502753;28;20205;-23
2021/06/06 20:18:55;;;;;;;10.33;9.07;;;18.90;83.00;;;;;;10485992;28;20221;-24
2021/06/06 20:24:20;;;;;;;9.93;8.80;;;18.90;83.10;;;;;;10526104;28;20204;-23
2021/06/06 20:29:41;;;;;;;9.33;8.37;;;18.90;83.00;;;;;;10533594;28;20704;-23
2021/06/06 20:35:25;;;;;;;8.83;7.97;;;18.90;83.00;;;;;;10493759;28;20192;-22
2021/06/06 20:40:49;;;;;;;10.57;8.43;;;18.90;83.00;;;;;;10502743;28;20270;-24
2021/06/06 20:46:12;;;;;;;9.30;8.33;;;18.90;83.00;;;;;;10535421;28;20212;-23
2021/06/06 20:51:33;;;;;;;8.33;7.63;;;18.90;83.00;;;;;;10513939;28;20299;-23
2021/06/06 20:56:57;;;;;;;8.93;8.13;;;18.90;82.90;;;;;;10500440;28;20231;-22
2021/06/06 21:02:19;;;;;;;9.20;8.30;;;18.90;83.00;;;;;;10493259;28;20262;-23
2021/06/06 21:07:41;;;;;;;9.23;8.37;;;18.90;83.00;;;;;;10493283;28;20215;-24
2021/06/06 21:13:04;;;;;;;8.90;8.00;;;18.90;82.90;;;;;;10511494;28;20199;-22
2021/06/06 21:18:28;;;;;;;8.80;8.00;;;18.90;82.90;;;;;;10523021;28;20219;-22
2021/06/06 21:23:50;;;;;;;8.27;7.43;;;18.90;82.90;;;;;;10478754;28;20200;-22
2021/06/06 21:29:15;;;;;;;8.33;7.53;;;18.90;82.90;;;;;;10501325;28;20587;-21
2021/06/06 21:34:51;;;;;;;8.07;7.27;;;18.90;82.90;;;;;;10399070;28;20208;-22
2021/06/06 21:40:16;;;;;;;8.60;7.80;;;18.90;82.80;;;;;;10459134;28;20234;-22
2021/06/06 21:45:39;;;;;;;7.70;6.90;;;18.90;82.80;;;;;;10533903;28;20214;-22
2021/06/06 21:51:02;;;;;;;8.93;7.27;;;18.90;82.80;;;;;;10541946;28;20284;-21
2021/06/06 21:56:24;;;;;;;7.73;7.00;;;18.90;82.80;;;;;;10543015;28;20681;-24
2021/06/06 22:01:47;;;;;;;7.87;7.17;;;18.90;82.80;;;;;;10520590;28;20220;-24
2021/06/06 22:07:09;;;;;;;9.00;8.20;;;18.90;83.30;;;;;;10532042;28;20219;-24
2021/06/06 22:12:30;;;;;;;7.90;7.10;;;18.90;82.70;;;;;;10523052;28;20188;-24
2021/06/06 22:17:53;;;;;;;7.70;7.00;;;18.90;82.70;;;;;;10537642;28;20207;-21
2021/06/06 22:23:53;;;;;;;7.13;6.53;;;18.90;82.70;;;;;;10538480;28;20576;-26
2021/06/06 22:29:52;;;;;;;8.00;7.30;;;18.90;82.60;;;;;;10510903;28;20219;-25
2021/06/06 22:35:51;;;;;;;7.67;6.87;;;18.90;82.60;;;;;;10458136;28;20205;-23
2021/06/06 22:41:50;;;;;;;8.30;7.37;;;18.90;82.50;;;;;;10481417;28;20598;-25
2021/06/06 22:47:49;;;;;;;7.90;7.20;;;18.90;82.50;;;;;;10540126;28;20695;-23
2021/06/06 22:53:48;;;;;;;7.63;6.93;;;18.90;82.50;;;;;;10540801;28;20196;-23
2021/06/06 22:59:47;;;;;;;7.40;6.80;;;18.90;82.50;;;;;;10500635;28;20216;-26
2021/06/06 23:05:46;;;;;;;7.33;6.70;;;18.90;82.50;;;;;;10497157;28;20220;-23
2021/06/06 23:11:45;;;;;;;7.50;6.90;;;18.90;82.50;;;;;;10566976;22;20685;-22
2021/06/06 23:17:09;;;;;;;7.77;7.10;;;18.90;82.40;;;;;;10569953;28;20195;-24
2021/06/06 23:22:32;;;;;;;7.73;7.03;;;18.90;82.50;;;;;;10579437;28;20257;-25
2021/06/06 23:27:54;;;;;;;7.97;7.17;;;18.90;82.50;;;;;;10574478;27;20231;-23
2021/06/06 23:33:17;;;;;;;7.30;6.70;;;18.90;82.50;;;;;;10566799;27;20529;-25
2021/06/06 23:38:38;;;;;;;7.30;6.60;;;18.90;82.50;;;;;;10574035;28;20249;-24
2021/06/06 23:44:00;;;;;;;7.93;7.23;;;18.90;82.40;;;;;;10574644;28;20210;-23
2021/06/06 23:49:23;;;;;;;7.97;7.17;;;18.90;82.40;;;;;;10580272;28;20206;-24
2021/06/06 23:54:45;;;;;;;7.30;6.60;;;18.90;82.30;;;;;;10571258;28;20188;-24
